createdAt,value
2023-02-28T09:10:36.961Z,5.55
2023-02-28T09:13:04.314Z,5.88
2023-02-28T09:15:31.624Z,6.18
2023-02-28T09:17:58.978Z,6.18
2023-02-28T09:20:26.563Z,6.30
2023-02-28T09:22:53.915Z,6.03
2023-02-28T09:25:21.282Z,6.45
2023-02-28T09:27:48.637Z,5.68
2023-02-28T09:30:17.213Z,5.68
2023-02-28T09:32:54.708Z,6.40
2023-02-28T09:35:27.731Z,5.90
2023-02-28T09:37:55.172Z,5.75
2023-02-28T09:40:26.583Z,5.95
2023-02-28T09:42:58.276Z,6.75
2023-02-28T09:45:43.668Z,6.30
2023-02-28T09:48:27.838Z,7.00
2023-02-28T09:51:13.654Z,6.53
2023-02-28T09:53:41.093Z,5.95
2023-02-28T09:56:42.866Z,6.35
2023-02-28T09:59:45.656Z,5.63
2023-02-28T10:03:05.056Z,5.80
2023-02-28T10:06:18.143Z,6.65
2023-02-28T10:09:14.464Z,5.68
2023-02-28T10:11:43.855Z,5.78
2023-02-28T10:14:28.594Z,6.73
2023-02-28T10:17:26.460Z,6.50
2023-02-28T10:20:30.744Z,6.47
2023-02-28T10:23:32.840Z,6.40
2023-02-28T10:26:17.076Z,6.40
2023-02-28T10:28:45.497Z,7.22
2023-02-28T10:31:22.679Z,6.35
2023-02-28T10:33:51.396Z,6.45
2023-02-28T10:36:22.814Z,6.28
2023-02-28T10:38:51.461Z,6.57
2023-02-28T10:41:37.262Z,6.47
2023-02-28T10:44:34.154Z,6.43
2023-02-28T10:47:01.502Z,6.70
2023-02-28T10:49:30.236Z,6.28
2023-02-28T10:52:01.964Z,6.55
2023-02-28T10:54:38.847Z,6.07
2023-02-28T10:57:29.596Z,6.78
2023-02-28T11:00:22.587Z,7.43
2023-02-28T11:02:50.415Z,6.65
2023-02-28T11:05:32.627Z,6.93
2023-02-28T11:08:16.940Z,6.55
2023-02-28T11:11:00.138Z,6.35
2023-02-28T11:13:37.240Z,7.45
2023-02-28T11:16:13.724Z,6.53
2023-02-28T11:18:56.401Z,6.78
2023-02-28T11:21:37.666Z,6.22
2023-02-28T11:24:30.073Z,6.57
2023-02-28T11:26:58.272Z,7.13
2023-02-28T11:29:35.657Z,7.43
2023-02-28T11:32:29.726Z,7.00
2023-02-28T11:35:23.457Z,6.53
2023-02-28T11:37:51.008Z,6.97
2023-02-28T11:40:39.799Z,7.60
2023-02-28T11:43:57.457Z,7.50
2023-02-28T11:46:55.363Z,6.38
2023-02-28T11:50:18.673Z,6.95
2023-02-28T11:53:32.088Z,7.07
2023-02-28T11:56:43.545Z,6.88
2023-02-28T11:59:50.300Z,7.32
2023-02-28T12:03:42.538Z,7.00
2023-02-28T12:06:36.663Z,7.07
2023-02-28T12:10:06.182Z,7.65
2023-02-28T12:13:28.110Z,6.90
2023-02-28T12:16:39.830Z,6.85
2023-02-28T12:19:59.314Z,6.90
2023-02-28T12:22:43.536Z,7.45
2023-02-28T12:26:11.306Z,6.57
2023-02-28T12:28:54.525Z,6.63
2023-02-28T12:31:32.102Z,7.22
2023-02-28T12:34:11.146Z,7.35
2023-02-28T12:36:41.132Z,11.00
2023-02-28T12:39:39.085Z,5.88
2023-02-28T12:42:33.490Z,8.15
2023-02-28T12:45:24.892Z,7.25
2023-02-28T12:48:23.101Z,6.82
2023-02-28T12:50:51.399Z,6.78
2023-02-28T12:54:11.584Z,7.20
2023-02-28T12:57:35.951Z,6.80
2023-02-28T13:00:23.295Z,10.13
2023-02-28T13:03:26.060Z,7.20
2023-02-28T13:06:36.615Z,7.40
2023-02-28T13:09:14.789Z,7.00
2023-02-28T13:11:48.699Z,6.85
2023-02-28T13:14:34.292Z,7.80
2023-02-28T13:17:14.131Z,7.45
2023-02-28T13:20:38.069Z,6.97
2023-02-28T13:23:25.405Z,7.10
2023-02-28T13:25:54.622Z,7.90
2023-02-28T13:28:56.593Z,8.25
2023-02-28T13:31:23.988Z,7.13
2023-02-28T13:34:00.553Z,7.55
2023-02-28T13:36:33.859Z,7.15
2023-02-28T13:39:37.794Z,8.02
2023-02-28T13:42:36.998Z,7.35
2023-02-28T13:45:06.926Z,7.22
2023-02-28T13:48:15.856Z,7.78
2023-02-28T13:50:44.847Z,7.25
2023-02-28T13:53:14.964Z,7.63
2023-02-28T13:56:11.241Z,8.52
2023-02-28T13:59:21.905Z,7.35
2023-02-28T14:02:50.178Z,7.78
2023-02-28T14:05:26.704Z,7.55
2023-02-28T14:08:07.398Z,7.80
2023-02-28T14:13:48.342Z,8.27
2023-02-28T14:16:40.311Z,7.88
2023-02-28T14:19:28.532Z,8.23
2023-02-28T14:23:01.545Z,8.40
2023-02-28T14:25:54.702Z,8.00
2023-02-28T14:29:25.624Z,8.85
2023-02-28T14:35:59.040Z,8.45
2023-02-28T14:39:17.156Z,8.90
2023-02-28T14:41:46.956Z,8.25
2023-02-28T14:44:28.950Z,8.30
2023-02-28T14:47:09.934Z,8.30
2023-02-28T14:49:46.781Z,9.18
2023-02-28T14:52:25.288Z,8.95
2023-02-28T14:55:15.527Z,9.50
2023-02-28T14:58:05.182Z,9.57
2023-02-28T15:00:51.811Z,9.27
2023-02-28T15:03:38.001Z,9.30
2023-02-28T15:06:17.665Z,9.38
2023-02-28T15:08:46.621Z,9.07
2023-02-28T15:11:23.185Z,9.65
2023-02-28T15:13:56.529Z,9.05
2023-02-28T15:16:38.460Z,9.38
2023-02-28T15:19:27.267Z,9.43
2023-02-28T15:22:17.845Z,8.90
2023-02-28T15:27:34.679Z,8.60
2023-02-28T15:30:33.663Z,8.52
2023-02-28T15:33:25.979Z,10.45
2023-02-28T15:36:16.915Z,10.10
2023-02-28T15:38:45.021Z,9.15
2023-02-28T15:41:39.085Z,9.38
2023-02-28T15:44:39.132Z,10.10
2023-02-28T15:47:26.122Z,10.57
2023-02-28T15:50:13.486Z,10.30
2023-02-28T15:52:45.991Z,8.52
2023-02-28T15:55:30.773Z,10.23
2023-02-28T15:58:02.921Z,10.48
2023-02-28T16:00:33.957Z,9.88
2023-02-28T16:03:01.410Z,10.90
2023-02-28T16:05:32.886Z,10.55
2023-02-28T16:08:16.573Z,11.27
2023-02-28T16:10:43.899Z,9.70
2023-02-28T16:13:16.142Z,9.80
2023-02-28T16:15:44.887Z,10.10
2023-02-28T16:18:14.179Z,9.70
2023-02-28T16:20:42.383Z,10.30
2023-02-28T16:23:09.690Z,10.55
2023-02-28T16:25:44.621Z,11.43
2023-02-28T16:28:39.848Z,9.75
2023-02-28T16:31:08.603Z,10.85
2023-02-28T16:33:35.994Z,10.15
2023-02-28T16:36:03.701Z,9.93
2023-02-28T16:38:31.052Z,10.13
2023-02-28T16:41:01.077Z,10.77
2023-02-28T16:43:29.067Z,9.98
2023-02-28T16:46:02.372Z,10.35
2023-02-28T16:48:30.566Z,10.23
2023-02-28T16:50:58.093Z,10.63
2023-02-28T16:53:25.361Z,10.30
2023-02-28T16:55:52.736Z,9.95
2023-02-28T16:58:22.673Z,11.18
2023-02-28T17:00:50.212Z,10.20
2023-02-28T17:03:33.489Z,10.02
2023-02-28T17:06:02.237Z,11.35
2023-02-28T17:08:30.802Z,11.27
2023-02-28T17:10:58.140Z,10.55
2023-02-28T17:13:25.878Z,11.27
2023-02-28T17:15:53.346Z,10.25
2023-02-28T17:18:22.071Z,11.35
2023-02-28T17:20:49.984Z,11.13
2023-02-28T17:23:17.406Z,10.85
2023-02-28T17:25:56.390Z,11.10
2023-02-28T17:28:25.849Z,11.40
2023-02-28T17:30:53.245Z,11.30
2023-02-28T17:33:20.573Z,11.25
2023-02-28T17:35:48.255Z,11.27
2023-02-28T17:38:20.621Z,12.32
2023-02-28T17:40:48.000Z,12.85
2023-02-28T17:43:15.888Z,12.88
2023-02-28T17:45:43.386Z,12.35
2023-02-28T17:48:13.994Z,11.82
2023-02-28T17:53:08.715Z,11.48
2023-02-28T17:55:36.911Z,13.27
2023-02-28T17:58:04.859Z,12.75
2023-02-28T18:00:35.553Z,11.80
2023-02-28T18:03:02.942Z,11.50
2023-02-28T18:05:31.068Z,11.77
2023-02-28T18:07:58.579Z,11.98
2023-02-28T18:10:28.281Z,11.68
2023-02-28T18:12:55.858Z,11.85
2023-02-28T18:15:23.622Z,11.93
2023-02-28T18:17:51.168Z,11.90
2023-02-28T18:20:19.633Z,11.90
2023-02-28T18:22:47.619Z,12.00
2023-02-28T18:25:17.054Z,12.27
2023-02-28T18:27:58.596Z,11.57
2023-02-28T18:30:37.342Z,12.85
2023-02-28T18:33:05.272Z,12.68
2023-02-28T18:35:36.153Z,11.95
2023-02-28T18:38:30.095Z,13.50
2023-02-28T18:41:05.458Z,13.30
2023-02-28T18:43:36.572Z,14.02
2023-02-28T18:46:15.689Z,11.50
2023-02-28T18:48:44.047Z,12.60
2023-02-28T18:51:23.599Z,14.55
2023-02-28T18:53:51.066Z,16.40
2023-02-28T18:56:23.885Z,14.27
2023-02-28T18:58:52.925Z,13.25
2023-02-28T19:01:31.050Z,12.70
2023-02-28T19:04:01.808Z,13.60
2023-02-28T19:06:31.261Z,12.82
2023-02-28T19:09:03.819Z,11.25
2023-02-28T19:11:32.101Z,11.90
2023-02-28T19:13:59.676Z,12.73
2023-02-28T19:16:28.308Z,12.98
2023-02-28T19:18:56.064Z,14.05
2023-02-28T19:21:25.057Z,13.68
2023-02-28T19:23:53.291Z,12.82
2023-02-28T19:26:25.564Z,12.95
2023-02-28T19:28:53.617Z,14.38
2023-02-28T19:31:26.671Z,13.45
2023-02-28T19:33:54.957Z,13.02
2023-02-28T19:36:23.468Z,14.40
2023-02-28T19:38:51.181Z,15.15
2023-02-28T19:41:19.543Z,13.88
2023-02-28T19:43:47.915Z,13.32
2023-02-28T19:46:15.531Z,14.60
2023-02-28T19:48:44.761Z,16.55
2023-02-28T19:51:14.984Z,35.97
2023-02-28T19:53:43.555Z,24.67
2023-02-28T19:56:12.055Z,19.40
2023-02-28T19:58:40.063Z,16.85
2023-02-28T20:01:18.862Z,20.75
2023-02-28T20:03:51.756Z,17.40
2023-02-28T20:06:19.292Z,15.88
2023-02-28T20:08:46.602Z,14.95
2023-02-28T20:11:17.535Z,15.40
2023-02-28T20:13:45.866Z,13.52
2023-02-28T20:16:15.969Z,14.70
2023-02-28T20:18:46.662Z,14.88
2023-02-28T20:23:43.380Z,14.88
2023-02-28T20:26:12.463Z,15.50
2023-02-28T20:28:40.487Z,14.75
